Terminal Aerodrome Forecast
Issued by NWS Riverton, WY

Home | Current Version | Previous Version | Text Only | Print | Product List | Glossary On
Versions: 1 2 3 4 5 6 7 8 9 10 11 12 13 14 15 16
000
FTUS45 KRIW 300500
TAFRIW
TAF
KRIW 300534Z 3006/3106 VRB05KT P6SM BCFG FEW008 SCT025 BKN150
     FM301500 VRB05KT P6SM SCT100 BKN200
     FM302000 10007KT P6SM SCT050 BKN200
     FM310200 VRB05KT P6SM SCT200=

USA.gov is the U.S. government's official web portal to all federal, state and local government web resources and services.